Nicht eingeloggt | Einloggen
Öffentliche Ansicht
Hier können Sie sich die Waage ansehen. Nutzen Sie auch die verschiedenen Auswertungsmöglichkeiten, die Ihnen zur Verfügung stehen. Sie können verschiedene Berichtarten auswählen und die Zeiträume entsprechend anpassen.
Waagenübersicht
Bienenstockwaage
Nr. 5514
Jürgen Binder
Standort: Schleswig Holstein, Itzehoe
Tracht:
Bemerkung:
Waagenauswahl

1. Waage auswählen:

Bienenstockwaage

2. Zeitraum wählen:




3. Datum bestimmen:

Diagramm
Anpassen
Neu laden
Durchgeführte Arbeiten, Korrekturen, Notizen
Beginn Ende Bemerkung
Keine Daten
-
-
Tabelle
Tag Gewicht Diff. min max Feuchte Regen Temp. 2
23.05.2017 66,22 kg +1,12 kg 9,6 °C 16,1 °C 26,4 °C 89,5 % 0,0 l 35,1 °C
24.05.2017 67,34 kg -0,17 kg 10,2 °C 14,1 °C 19,1 °C 91,4 % 0,0 l 35,1 °C
25.05.2017 67,17 kg +1,36 kg 9,7 °C 16,3 °C 27,6 °C 90,7 % 0,0 l 35,1 °C
26.05.2017 68,53 kg +1,72 kg 11,7 °C 17,8 °C 29,3 °C 90,2 % 0,0 l 35,1 °C
27.05.2017 70,22 kg +1,48 kg 10,4 °C 17,8 °C 29,1 °C 89,8 % 0,0 l 35,2 °C
28.05.2017 71,70 kg -0,15 kg 12,7 °C 18,3 °C 28,7 °C 91,0 % 1,5 l 35,3 °C
29.05.2017 71,55 kg +0,21 kg 14,4 °C 18,2 °C 26,5 °C 92,9 % 0,0 l 35,3 °C
30.05.2017 71,77 kg +0,10 kg 14,3 °C 18,9 °C 25,4 °C 93,8 % 4,0 l 35,3 °C
31.05.2017 71,86 kg -0,26 kg 8,4 °C 15,8 °C 21,8 °C 86,7 % 0,0 l 35,1 °C
01.06.2017 71,60 kg -0,04 kg 7,0 °C 13,9 °C 25,9 °C 85,5 % 0,0 l 35,1 °C
02.06.2017 71,56 kg +0,10 kg 4,6 °C 14,0 °C 26,8 °C 83,7 % 0,0 l 35,1 °C
03.06.2017 71,66 kg -0,05 kg 11,5 °C 16,3 °C 23,2 °C 96,3 % 13,5 l 35,0 °C
04.06.2017 71,61 kg +0,94 kg 10,0 °C 16,7 °C 25,2 °C 76,8 % 23,0 l 29,2 °C
05.06.2017 3,02 kg +2,11 kg 8,0 °C 14,7 °C 25,0 °C 24,1 % 0,0 l 22,5 °C
06.06.2017 52,56 kg +1,69 kg 11,1 °C 16,7 °C 26,3 °C 81,4 % 5,0 l 35,3 °C
07.06.2017 54,24 kg -1,39 kg 10,6 °C 11,5 °C 13,4 °C 95,3 % 16,5 l 35,2 °C
08.06.2017 52,85 kg -0,16 kg 10,7 °C 13,6 °C 15,4 °C 97,9 % 3,5 l 35,2 °C
09.06.2017 52,70 kg +1,29 kg 10,1 °C 16,0 °C 25,2 °C 93,8 % 18,5 l 35,2 °C
10.06.2017 53,98 kg -0,05 kg 9,7 °C 16,2 °C 25,0 °C 94,6 % 0,0 l 35,3 °C
11.06.2017 53,94 kg +0,43 kg 14,6 °C 21,0 °C 30,7 °C 80,9 % 1,0 l 35,4 °C
12.06.2017 54,37 kg -1,58 kg 13,0 °C 16,0 °C 19,3 °C 90,6 % 0,5 l 35,3 °C
13.06.2017 52,78 kg -0,33 kg 12,1 °C 15,1 °C 19,6 °C 92,2 % 0,0 l 35,3 °C
14.06.2017 52,45 kg +1,50 kg 11,3 °C 16,2 °C 25,0 °C 88,4 % 0,0 l 35,4 °C
15.06.2017 53,96 kg +1,28 kg 9,8 °C 19,1 °C 29,7 °C 78,9 % 0,0 l 35,3 °C
16.06.2017 55,24 kg -0,86 kg 11,9 °C 16,0 °C 24,8 °C 87,2 % 0,0 l 35,3 °C
17.06.2017 54,38 kg +1,35 kg 11,4 °C 17,2 °C 28,1 °C 84,5 % 0,0 l 35,2 °C
18.06.2017 55,74 kg +2,70 kg 13,6 °C 19,9 °C 30,7 °C 86,9 % 0,0 l 35,2 °C
19.06.2017 58,44 kg +2,73 kg 13,4 °C 21,2 °C 32,9 °C 85,5 % 0,0 l 35,1 °C
20.06.2017 61,16 kg +0,57 kg 9,4 °C 17,8 °C 33,9 °C 81,2 % 0,0 l 35,0 °C
21.06.2017 61,73 kg +1,07 kg 7,7 °C 15,9 °C 28,0 °C 80,0 % 0,0 l 35,1 °C